sensor_id;sensor_type;location;lat;lon;timestamp;pressure;altitude;pressure_sealevel;temperature;humidity
15998;BME280;8103;51.340;12.326;2023-02-21T00:00:15;100267.16;;;11.35;76.19
15998;BME280;8103;51.340;12.326;2023-02-21T00:03:01;100259.44;;;11.39;75.86
15998;BME280;8103;51.340;12.326;2023-02-21T00:05:46;100252.41;;;11.33;76.37
15998;BME280;8103;51.340;12.326;2023-02-21T00:08:32;100255.34;;;11.31;75.91
15998;BME280;8103;51.340;12.326;2023-02-21T00:11:17;100260.97;;;11.30;76.40
15998;BME280;8103;51.340;12.326;2023-02-21T00:14:03;100261.53;;;11.32;76.65
15998;BME280;8103;51.340;12.326;2023-02-21T00:16:48;100259.88;;;11.31;76.55
15998;BME280;8103;51.340;12.326;2023-02-21T00:19:34;100262.81;;;11.29;76.20
15998;BME280;8103;51.340;12.326;2023-02-21T00:22:20;100260.69;;;11.31;76.45
15998;BME280;8103;51.340;12.326;2023-02-21T00:25:06;100256.75;;;11.39;76.40
15998;BME280;8103;51.340;12.326;2023-02-21T00:27:51;100250.28;;;11.35;76.16
15998;BME280;8103;51.340;12.326;2023-02-21T00:30:37;100249.78;;;11.38;75.96
15998;BME280;8103;51.340;12.326;2023-02-21T00:33:23;100241.97;;;11.36;76.19
15998;BME280;8103;51.340;12.326;2023-02-21T00:36:15;100246.50;;;11.36;76.19
15998;BME280;8103;51.340;12.326;2023-02-21T00:39:00;100247.03;;;11.33;76.67
15998;BME280;8103;51.340;12.326;2023-02-21T00:41:46;100246.47;;;11.31;76.37
15998;BME280;8103;51.340;12.326;2023-02-21T00:44:32;100233.56;;;11.28;76.62
15998;BME280;8103;51.340;12.326;2023-02-21T00:47:18;100228.72;;;11.25;76.71
15998;BME280;8103;51.340;12.326;2023-02-21T00:50:05;100224.97;;;11.26;76.71
15998;BME280;8103;51.340;12.326;2023-02-21T00:52:50;100239.75;;;11.28;76.77
15998;BME280;8103;51.340;12.326;2023-02-21T00:55:36;100236.03;;;11.34;76.74
15998;BME280;8103;51.340;12.326;2023-02-21T00:58:21;100233.03;;;11.31;76.63
15998;BME280;8103;51.340;12.326;2023-02-21T01:01:07;100242.72;;;11.32;76.61
15998;BME280;8103;51.340;12.326;2023-02-21T01:03:57;100236.28;;;11.33;76.93
15998;BME280;8103;51.340;12.326;2023-02-21T01:06:43;100238.47;;;11.36;76.17
15998;BME280;8103;51.340;12.326;2023-02-21T01:09:29;100232.53;;;11.34;76.53
15998;BME280;8103;51.340;12.326;2023-02-21T01:12:14;100229.84;;;11.34;76.64
15998;BME280;8103;51.340;12.326;2023-02-21T01:14:59;100233.59;;;11.33;76.95
15998;BME280;8103;51.340;12.326;2023-02-21T01:17:45;100230.91;;;11.33;76.96
15998;BME280;8103;51.340;12.326;2023-02-21T01:20:31;100230.09;;;11.32;76.88
15998;BME280;8103;51.340;12.326;2023-02-21T01:23:16;100223.38;;;11.30;76.95
15998;BME280;8103;51.340;12.326;2023-02-21T01:26:03;100234.69;;;11.32;77.35
15998;BME280;8103;51.340;12.326;2023-02-21T01:28:51;100230.34;;;11.31;77.23
15998;BME280;8103;51.340;12.326;2023-02-21T01:31:37;100243.84;;;11.36;76.81
15998;BME280;8103;51.340;12.326;2023-02-21T01:34:23;100238.22;;;11.37;76.99
15998;BME280;8103;51.340;12.326;2023-02-21T01:37:08;100245.44;;;11.37;77.13
15998;BME280;8103;51.340;12.326;2023-02-21T01:39:54;100247.03;;;11.33;77.38
15998;BME280;8103;51.340;12.326;2023-02-21T01:42:40;100246.50;;;11.36;77.22
15998;BME280;8103;51.340;12.326;2023-02-21T01:45:42;100249.19;;;11.36;77.12
15998;BME280;8103;51.340;12.326;2023-02-21T01:48:31;100249.50;;;11.39;77.71
15998;BME280;8103;51.340;12.326;2023-02-21T01:51:27;100253.81;;;11.40;77.46
15998;BME280;8103;51.340;12.326;2023-02-21T01:54:13;100251.38;;;11.39;77.69
15998;BME280;8103;51.340;12.326;2023-02-21T01:57:02;100245.19;;;11.38;77.86
15998;BME280;8103;51.340;12.326;2023-02-21T01:59:51;100240.06;;;11.37;77.82
15998;BME280;8103;51.340;12.326;2023-02-21T02:02:54;100225.88;;;11.36;77.34
15998;BME280;8103;51.340;12.326;2023-02-21T02:05:47;100244.41;;;11.38;77.73
15998;BME280;8103;51.340;12.326;2023-02-21T02:08:37;100232.03;;;11.37;77.69
15998;BME280;8103;51.340;12.326;2023-02-21T02:11:51;100239.53;;;11.35;77.80
15998;BME280;8103;51.340;12.326;2023-02-21T02:15:31;100226.38;;;11.33;77.98
15998;BME280;8103;51.340;12.326;2023-02-21T02:31:35;100186.28;;;11.22;79.11
15998;BME280;8103;51.340;12.326;2023-02-21T02:37:30;100192.06;;;11.09;80.11
15998;BME280;8103;51.340;12.326;2023-02-21T02:40:45;100205.47;;;11.09;80.05
15998;BME280;8103;51.340;12.326;2023-02-21T02:43:33;100204.94;;;11.07;79.97
15998;BME280;8103;51.340;12.326;2023-02-21T02:46:18;100195.06;;;11.12;79.94
15998;BME280;8103;51.340;12.326;2023-02-21T02:49:20;100196.13;;;11.11;80.00
15998;BME280;8103;51.340;12.326;2023-02-21T02:51:48;100192.63;;;11.11;80.39
15998;BME280;8103;51.340;12.326;2023-02-21T02:54:15;100191.56;;;11.12;79.96
15998;BME280;8103;51.340;12.326;2023-02-21T02:56:44;100195.31;;;11.11;80.71
15998;BME280;8103;51.340;12.326;2023-02-21T02:59:19;100197.72;;;11.12;80.54
15998;BME280;8103;51.340;12.326;2023-02-21T03:05:49;100188.06;;;11.11;81.29
15998;BME280;8103;51.340;12.326;2023-02-21T03:08:52;100183.50;;;11.12;81.19
15998;BME280;8103;51.340;12.326;2023-02-21T03:11:25;100186.19;;;11.12;80.99
15998;BME280;8103;51.340;12.326;2023-02-21T03:14:14;100180.03;;;11.11;81.46
15998;BME280;8103;51.340;12.326;2023-02-21T03:16:53;100178.69;;;11.14;81.32
15998;BME280;8103;51.340;12.326;2023-02-21T03:19:31;100173.91;;;11.16;81.04
15998;BME280;8103;51.340;12.326;2023-02-21T03:22:14;100180.63;;;11.18;81.50
15998;BME280;8103;51.340;12.326;2023-02-21T03:24:46;100168.56;;;11.21;81.17
15998;BME280;8103;51.340;12.326;2023-02-21T03:27:17;100170.69;;;11.19;81.35
15998;BME280;8103;51.340;12.326;2023-02-21T03:29:47;100184.13;;;11.19;81.10
15998;BME280;8103;51.340;12.326;2023-02-21T03:32:30;100170.69;;;11.19;81.51
15998;BME280;8103;51.340;12.326;2023-02-21T03:34:58;100173.91;;;11.21;81.62
15998;BME280;8103;51.340;12.326;2023-02-21T03:37:39;100175.31;;;11.23;81.37
15998;BME280;8103;51.340;12.326;2023-02-21T03:40:22;100175.56;;;11.22;81.26
15998;BME280;8103;51.340;12.326;2023-02-21T03:42:52;100187.09;;;11.22;81.33
15998;BME280;8103;51.340;12.326;2023-02-21T03:45:20;100175.84;;;11.25;81.38
15998;BME280;8103;51.340;12.326;2023-02-21T03:47:47;100182.03;;;11.26;81.42
15998;BME280;8103;51.340;12.326;2023-02-21T03:50:14;100176.66;;;11.26;81.44
15998;BME280;8103;51.340;12.326;2023-02-21T03:52:41;100171.81;;;11.23;81.50
15998;BME280;8103;51.340;12.326;2023-02-21T03:55:08;100176.34;;;11.22;81.58
15998;BME280;8103;51.340;12.326;2023-02-21T03:57:35;100181.72;;;11.22;81.62
15998;BME280;8103;51.340;12.326;2023-02-21T04:00:03;100175.00;;;11.20;81.59
15998;BME280;8103;51.340;12.326;2023-02-21T04:02:30;100175.25;;;11.18;82.04
15998;BME280;8103;51.340;12.326;2023-02-21T04:04:57;100169.06;;;11.18;81.90
15998;BME280;8103;51.340;12.326;2023-02-21T04:07:23;100185.13;;;11.13;82.48
15998;BME280;8103;51.340;12.326;2023-02-21T04:09:50;100181.31;;;11.09;82.71
15998;BME280;8103;51.340;12.326;2023-02-21T04:12:17;100183.47;;;11.07;82.66
15998;BME280;8103;51.340;12.326;2023-02-21T04:14:44;100187.19;;;11.06;82.51
15998;BME280;8103;51.340;12.326;2023-02-21T04:21:17;100178.63;;;11.04;83.02
15998;BME280;8103;51.340;12.326;2023-02-21T04:23:44;100175.69;;;11.05;82.81
15998;BME280;8103;51.340;12.326;2023-02-21T04:30:42;100177.53;;;11.05;82.84
15998;BME280;8103;51.340;12.326;2023-02-21T04:33:09;100186.19;;;11.12;82.71
15998;BME280;8103;51.340;12.326;2023-02-21T04:35:35;100182.97;;;11.10;83.03
15998;BME280;8103;51.340;12.326;2023-02-21T04:42:09;100174.66;;;11.11;82.84
15998;BME280;8103;51.340;12.326;2023-02-21T04:44:37;100173.34;;;11.14;82.70
15998;BME280;8103;51.340;12.326;2023-02-21T04:47:04;100171.72;;;11.13;82.74
15998;BME280;8103;51.340;12.326;2023-02-21T04:49:31;100174.41;;;11.13;82.66
15998;BME280;8103;51.340;12.326;2023-02-21T04:51:58;100161.00;;;11.13;82.64
15998;BME280;8103;51.340;12.326;2023-02-21T04:54:25;100156.97;;;11.15;82.45
15998;BME280;8103;51.340;12.326;2023-02-21T04:56:51;100163.16;;;11.16;82.01
15998;BME280;8103;51.340;12.326;2023-02-21T04:59:18;100176.59;;;11.16;82.22
15998;BME280;8103;51.340;12.326;2023-02-21T05:01:45;100164.44;;;11.08;82.21
15998;BME280;8103;51.340;12.326;2023-02-21T05:04:12;100165.75;;;11.06;82.00
15998;BME280;8103;51.340;12.326;2023-02-21T05:06:39;100156.06;;;11.00;82.07
15998;BME280;8103;51.340;12.326;2023-02-21T05:09:06;100157.34;;;10.97;82.58
15998;BME280;8103;51.340;12.326;2023-02-21T05:15:32;100165.38;;;10.92;82.98
15998;BME280;8103;51.340;12.326;2023-02-21T05:17:59;100160.28;;;10.96;82.84
15998;BME280;8103;51.340;12.326;2023-02-21T05:20:26;100168.41;;;11.01;82.41
15998;BME280;8103;51.340;12.326;2023-02-21T05:22:52;100161.94;;;10.97;82.64
15998;BME280;8103;51.340;12.326;2023-02-21T05:25:22;100167.81;;;10.94;82.99
15998;BME280;8103;51.340;12.326;2023-02-21T05:27:51;100180.47;;;10.98;83.20
15998;BME280;8103;51.340;12.326;2023-02-21T05:30:22;100177.25;;;11.01;82.51
15998;BME280;8103;51.340;12.326;2023-02-21T05:32:49;100174.84;;;11.05;82.48
15998;BME280;8103;51.340;12.326;2023-02-21T05:35:16;100177.03;;;11.08;82.27
15998;BME280;8103;51.340;12.326;2023-02-21T05:37:43;100181.03;;;11.05;82.21
15998;BME280;8103;51.340;12.326;2023-02-21T05:44:17;100180.19;;;11.00;82.34
15998;BME280;8103;51.340;12.326;2023-02-21T05:46:44;100168.91;;;10.98;82.30
15998;BME280;8103;51.340;12.326;2023-02-21T05:49:12;100185.50;;;10.95;82.79
15998;BME280;8103;51.340;12.326;2023-02-21T05:51:42;100175.59;;;10.95;82.82
15998;BME280;8103;51.340;12.326;2023-02-21T05:54:17;100194.63;;;10.94;83.16
15998;BME280;8103;51.340;12.326;2023-02-21T05:56:47;100189.28;;;10.99;83.08
15998;BME280;8103;51.340;12.326;2023-02-21T05:59:16;100189.84;;;11.01;82.81
15998;BME280;8103;51.340;12.326;2023-02-21T06:01:46;100193.63;;;11.00;82.77
15998;BME280;8103;51.340;12.326;2023-02-21T06:04:13;100199.75;;;11.00;82.21
15998;BME280;8103;51.340;12.326;2023-02-21T06:06:41;100208.06;;;10.99;82.58
15998;BME280;8103;51.340;12.326;2023-02-21T06:09:09;100204.34;;;11.00;82.56
15998;BME280;8103;51.340;12.326;2023-02-21T06:11:38;100212.94;;;11.02;82.33
15998;BME280;8103;51.340;12.326;2023-02-21T06:14:13;100216.44;;;11.02;81.79
15998;BME280;8103;51.340;12.326;2023-02-21T06:16:40;100214.56;;;11.03;81.99
15998;BME280;8103;51.340;12.326;2023-02-21T06:19:08;100218.28;;;11.02;81.88
15998;BME280;8103;51.340;12.326;2023-02-21T06:21:35;100225.31;;;11.03;82.74
15998;BME280;8103;51.340;12.326;2023-02-21T06:24:03;100240.84;;;11.06;82.21
15998;BME280;8103;51.340;12.326;2023-02-21T06:26:30;100232.63;;;11.12;82.31
15998;BME280;8103;51.340;12.326;2023-02-21T06:28:57;100240.91;;;11.11;81.81
15998;BME280;8103;51.340;12.326;2023-02-21T06:31:24;100232.38;;;11.14;82.34
15998;BME280;8103;51.340;12.326;2023-02-21T06:33:51;100240.97;;;11.16;82.33
15998;BME280;8103;51.340;12.326;2023-02-21T06:36:22;100240.47;;;11.19;81.85
15998;BME280;8103;51.340;12.326;2023-02-21T06:38:52;100250.97;;;11.20;81.77
15998;BME280;8103;51.340;12.326;2023-02-21T06:41:25;100244.28;;;11.28;81.90
15998;BME280;8103;51.340;12.326;2023-02-21T06:43:54;100243.25;;;11.29;82.13
15998;BME280;8103;51.340;12.326;2023-02-21T06:46:26;100239.53;;;11.35;81.62
15998;BME280;8103;51.340;12.326;2023-02-21T06:48:53;100238.41;;;11.31;81.76
15998;BME280;8103;51.340;12.326;2023-02-21T06:51:20;100242.22;;;11.35;80.85
15998;BME280;8103;51.340;12.326;2023-02-21T06:53:55;100254.50;;;11.31;81.88
15998;BME280;8103;51.340;12.326;2023-02-21T06:56:23;100256.66;;;11.29;81.58
15998;BME280;8103;51.340;12.326;2023-02-21T06:58:49;100264.75;;;11.34;81.57
15998;BME280;8103;51.340;12.326;2023-02-21T07:01:16;100261.00;;;11.35;81.33
15998;BME280;8103;51.340;12.326;2023-02-21T07:03:43;100258.34;;;11.40;81.42
15998;BME280;8103;51.340;12.326;2023-02-21T07:06:12;100265.97;;;11.48;80.61
15998;BME280;8103;51.340;12.326;2023-02-21T07:08:39;100261.09;;;11.45;81.07
15998;BME280;8103;51.340;12.326;2023-02-21T07:11:06;100261.09;;;11.45;80.78
15998;BME280;8103;51.340;12.326;2023-02-21T07:13:33;100264.31;;;11.47;80.96
15998;BME280;8103;51.340;12.326;2023-02-21T07:16:01;100274.84;;;11.53;81.25
15998;BME280;8103;51.340;12.326;2023-02-21T07:18:28;100274.53;;;11.50;81.42
15998;BME280;8103;51.340;12.326;2023-02-21T07:20:55;100279.13;;;11.49;80.85
15998;BME280;8103;51.340;12.326;2023-02-21T07:23:22;100271.06;;;11.49;81.16
15998;BME280;8103;51.340;12.326;2023-02-21T07:25:49;100283.97;;;11.52;81.09
15998;BME280;8103;51.340;12.326;2023-02-21T07:28:17;100279.19;;;11.59;80.78
15998;BME280;8103;51.340;12.326;2023-02-21T07:30:44;100289.22;;;11.69;80.50
15998;BME280;8103;51.340;12.326;2023-02-21T07:33:10;100280.13;;;11.70;80.61
15998;BME280;8103;51.340;12.326;2023-02-21T07:35:37;100287.44;;;11.79;80.12
15998;BME280;8103;51.340;12.326;2023-02-21T07:38:04;100282.91;;;11.85;79.79
15998;BME280;8103;51.340;12.326;2023-02-21T07:40:31;100289.91;;;11.86;79.38
15998;BME280;8103;51.340;12.326;2023-02-21T07:42:57;100283.53;;;11.92;79.12
15998;BME280;8103;51.340;12.326;2023-02-21T07:45:24;100284.81;;;11.89;78.94
15998;BME280;8103;51.340;12.326;2023-02-21T07:47:51;100287.75;;;11.88;79.47
15998;BME280;8103;51.340;12.326;2023-02-21T07:50:19;100285.34;;;11.86;79.70
15998;BME280;8103;51.340;12.326;2023-02-21T07:52:45;100282.91;;;11.85;79.39
15998;BME280;8103;51.340;12.326;2023-02-21T07:55:13;100279.97;;;11.86;79.23
15998;BME280;8103;51.340;12.326;2023-02-21T07:57:40;100293.22;;;11.98;78.82
15998;BME280;8103;51.340;12.326;2023-02-21T08:00:07;100292.06;;;12.25;78.43
15998;BME280;8103;51.340;12.326;2023-02-21T08:02:34;100305.25;;;12.27;77.82
15998;BME280;8103;51.340;12.326;2023-02-21T08:05:01;100305.00;;;12.33;78.01
15998;BME280;8103;51.340;12.326;2023-02-21T08:07:28;100309.63;;;12.43;77.44
15998;BME280;8103;51.340;12.326;2023-02-21T08:09:55;100308.63;;;12.64;76.14
15998;BME280;8103;51.340;12.326;2023-02-21T08:12:22;100308.16;;;12.72;75.79
15998;BME280;8103;51.340;12.326;2023-02-21T08:14:49;100308.69;;;12.74;75.72
15998;BME280;8103;51.340;12.326;2023-02-21T08:17:16;100315.13;;;12.68;75.81
15998;BME280;8103;51.340;12.326;2023-02-21T08:19:42;100315.91;;;12.63;76.32
15998;BME280;8103;51.340;12.326;2023-02-21T08:22:10;100314.00;;;12.64;76.28
15998;BME280;8103;51.340;12.326;2023-02-21T08:24:36;100317.25;;;12.66;76.20
15998;BME280;8103;51.340;12.326;2023-02-21T08:27:03;100325.84;;;12.58;76.70
15998;BME280;8103;51.340;12.326;2023-02-21T08:29:30;100316.13;;;12.57;76.85
15998;BME280;8103;51.340;12.326;2023-02-21T08:31:57;100319.44;;;12.69;76.43
15998;BME280;8103;51.340;12.326;2023-02-21T08:34:23;100327.31;;;12.85;75.92
15998;BME280;8103;51.340;12.326;2023-02-21T08:36:50;100329.72;;;12.87;75.76
15998;BME280;8103;51.340;12.326;2023-02-21T08:39:17;100328.44;;;13.00;75.46
15998;BME280;8103;51.340;12.326;2023-02-21T08:41:45;100327.19;;;13.32;73.98
15998;BME280;8103;51.340;12.326;2023-02-21T08:44:16;100327.22;;;13.42;73.45
15998;BME280;8103;51.340;12.326;2023-02-21T08:46:43;100322.66;;;13.53;72.89
15998;BME280;8103;51.340;12.326;2023-02-21T08:49:10;100334.75;;;13.40;72.63
15998;BME280;8103;51.340;12.326;2023-02-21T08:51:37;100331.53;;;13.58;72.81
15998;BME280;8103;51.340;12.326;2023-02-21T08:54:06;100333.19;;;13.79;71.54
15998;BME280;8103;51.340;12.326;2023-02-21T08:56:33;100335.88;;;13.89;71.02
15998;BME280;8103;51.340;12.326;2023-02-21T08:59:00;100330.47;;;13.79;70.87
15998;BME280;8103;51.340;12.326;2023-02-21T09:01:33;100341.25;;;13.59;71.95
15998;BME280;8103;51.340;12.326;2023-02-21T09:04:04;100339.06;;;13.46;72.37
15998;BME280;8103;51.340;12.326;2023-02-21T09:06:32;100345.75;;;13.24;72.77
15998;BME280;8103;51.340;12.326;2023-02-21T09:08:58;100338.47;;;13.19;73.12
15998;BME280;8103;51.340;12.326;2023-02-21T09:11:25;100340.34;;;13.14;73.37
15998;BME280;8103;51.340;12.326;2023-02-21T09:13:52;100338.47;;;13.24;73.25
15998;BME280;8103;51.340;12.326;2023-02-21T09:16:21;100339.03;;;13.21;73.42
15998;BME280;8103;51.340;12.326;2023-02-21T09:18:56;100330.94;;;13.16;73.31
15998;BME280;8103;51.340;12.326;2023-02-21T09:21:25;100330.97;;;13.36;72.79
15998;BME280;8103;51.340;12.326;2023-02-21T09:23:54;100328.03;;;13.53;72.45
15998;BME280;8103;51.340;12.326;2023-02-21T09:26:21;100330.75;;;13.68;71.61
15998;BME280;8103;51.340;12.326;2023-02-21T09:28:51;100324.81;;;13.86;70.59
15998;BME280;8103;51.340;12.326;2023-02-21T09:31:19;100323.47;;;13.98;70.47
15998;BME280;8103;51.340;12.326;2023-02-21T09:33:46;100320.78;;;13.88;70.25
15998;BME280;8103;51.340;12.326;2023-02-21T09:36:13;100314.03;;;13.91;70.60
15998;BME280;8103;51.340;12.326;2023-02-21T09:38:40;100320.16;;;14.51;69.58
15998;BME280;8103;51.340;12.326;2023-02-21T09:41:11;100328.91;;;14.97;66.81
15998;BME280;8103;51.340;12.326;2023-02-21T09:43:44;100317.88;;;14.83;66.11
15998;BME280;8103;51.340;12.326;2023-02-21T09:46:20;100327.09;;;14.72;67.02
15998;BME280;8103;51.340;12.326;2023-02-21T09:48:51;100326.53;;;14.80;66.90
15998;BME280;8103;51.340;12.326;2023-02-21T09:51:19;100320.09;;;14.71;66.98
15998;BME280;8103;51.340;12.326;2023-02-21T09:53:47;100333.06;;;14.64;66.73
15998;BME280;8103;51.340;12.326;2023-02-21T09:56:35;100331.78;;;14.47;67.83
15998;BME280;8103;51.340;12.326;2023-02-21T09:59:11;100335.47;;;14.71;67.44
15998;BME280;8103;51.340;12.326;2023-02-21T10:02:23;100329.19;;;14.90;66.27
15998;BME280;8103;51.340;12.326;2023-02-21T10:05:12;100344.31;;;14.86;66.46
15998;BME280;8103;51.340;12.326;2023-02-21T10:08:02;100341.41;;;14.78;66.67
15998;BME280;8103;51.340;12.326;2023-02-21T10:10:42;100346.53;;;14.69;67.13
15998;BME280;8103;51.340;12.326;2023-02-21T10:16:16;100345.56;;;14.30;68.21
15998;BME280;8103;51.340;12.326;2023-02-21T10:19:16;100350.69;;;14.27;68.62
15998;BME280;8103;51.340;12.326;2023-02-21T10:21:48;100351.47;;;14.22;68.95
15998;BME280;8103;51.340;12.326;2023-02-21T10:24:21;100355.84;;;14.23;68.80
15998;BME280;8103;51.340;12.326;2023-02-21T10:27:16;100354.19;;;14.07;69.64
15998;BME280;8103;51.340;12.326;2023-02-21T10:30:05;100364.72;;;13.99;69.71
15998;BME280;8103;51.340;12.326;2023-02-21T10:32:37;100358.50;;;13.98;69.98
15998;BME280;8103;51.340;12.326;2023-02-21T10:35:04;100358.50;;;14.03;70.08
15998;BME280;8103;51.340;12.326;2023-02-21T10:37:42;100363.34;;;14.11;69.89
15998;BME280;8103;51.340;12.326;2023-02-21T10:40:34;100362.00;;;14.24;69.51
15998;BME280;8103;51.340;12.326;2023-02-21T10:43:15;100378.47;;;14.27;69.28
15998;BME280;8103;51.340;12.326;2023-02-21T10:49:31;100381.72;;;13.94;70.48
15998;BME280;8103;51.340;12.326;2023-02-21T10:52:12;100382.78;;;13.88;70.80
15998;BME280;8103;51.340;12.326;2023-02-21T10:54:40;100372.50;;;13.80;71.56
15998;BME280;8103;51.340;12.326;2023-02-21T10:57:09;100367.94;;;13.81;71.49
15998;BME280;8103;51.340;12.326;2023-02-21T10:59:42;100369.81;;;13.90;70.99
15998;BME280;8103;51.340;12.326;2023-02-21T11:02:34;100368.22;;;13.89;71.24
15998;BME280;8103;51.340;12.326;2023-02-21T11:05:16;100364.97;;;13.87;71.50
15998;BME280;8103;51.340;12.326;2023-02-21T11:08:06;100367.13;;;13.90;71.32
15998;BME280;8103;51.340;12.326;2023-02-21T11:10:41;100369.00;;;13.95;71.33
15998;BME280;8103;51.340;12.326;2023-02-21T11:13:18;100361.19;;;14.03;71.03
15998;BME280;8103;51.340;12.326;2023-02-21T11:15:46;100360.41;;;14.03;70.09
15998;BME280;8103;51.340;12.326;2023-02-21T11:18:23;100361.75;;;14.00;69.57
15998;BME280;8103;51.340;12.326;2023-02-21T11:20:52;100359.59;;;13.97;70.04
15998;BME280;8103;51.340;12.326;2023-02-21T11:23:24;100352.03;;;13.89;69.78
15998;BME280;8103;51.340;12.326;2023-02-21T11:26:05;100344.47;;;14.06;69.21
15998;BME280;8103;51.340;12.326;2023-02-21T11:28:42;100347.16;;;14.06;68.96
15998;BME280;8103;51.340;12.326;2023-02-21T11:31:26;100350.41;;;14.03;69.06
15998;BME280;8103;51.340;12.326;2023-02-21T11:34:04;100354.19;;;13.92;69.59
15998;BME280;8103;51.340;12.326;2023-02-21T11:36:40;100342.06;;;13.85;69.53
15998;BME280;8103;51.340;12.326;2023-02-21T11:39:18;100345.03;;;13.88;69.82
15998;BME280;8103;51.340;12.326;2023-02-21T11:41:51;100336.97;;;13.78;69.35
15998;BME280;8103;51.340;12.326;2023-02-21T11:44:37;100339.63;;;13.73;69.96
15998;BME280;8103;51.340;12.326;2023-02-21T11:47:25;100334.22;;;13.68;70.65
15998;BME280;8103;51.340;12.326;2023-02-21T11:50:07;100332.63;;;13.72;70.68
15998;BME280;8103;51.340;12.326;2023-02-21T11:52:44;100325.38;;;13.68;70.57
15998;BME280;8103;51.340;12.326;2023-02-21T11:55:19;100318.63;;;13.75;70.49
15998;BME280;8103;51.340;12.326;2023-02-21T11:58:20;100314.56;;;13.88;69.95
15998;BME280;8103;51.340;12.326;2023-02-21T12:01:02;100325.06;;;13.99;69.31
15998;BME280;8103;51.340;12.326;2023-02-21T12:03:53;100325.06;;;14.09;68.94
15998;BME280;8103;51.340;12.326;2023-02-21T12:06:45;100320.72;;;14.18;68.88
15998;BME280;8103;51.340;12.326;2023-02-21T12:09:41;100317.84;;;14.93;66.51
15998;BME280;8103;51.340;12.326;2023-02-21T12:12:40;100309.47;;;15.44;64.87
15998;BME280;8103;51.340;12.326;2023-02-21T12:15:23;100304.28;;;15.81;63.99
15998;BME280;8103;51.340;12.326;2023-02-21T12:27:33;100291.66;;;16.99;58.81
15998;BME280;8103;51.340;12.326;2023-02-21T12:30:46;100295.59;;;16.41;59.65
15998;BME280;8103;51.340;12.326;2023-02-21T12:36:57;100290.06;;;15.37;63.33
15998;BME280;8103;51.340;12.326;2023-02-21T12:46:03;100280.16;;;14.63;67.62
15998;BME280;8103;51.340;12.326;2023-02-21T12:49:10;100284.25;;;14.56;68.17
15998;BME280;8103;51.340;12.326;2023-02-21T12:51:53;100271.06;;;14.44;68.46
15998;BME280;8103;51.340;12.326;2023-02-21T12:54:50;100277.59;;;14.38;68.51
15998;BME280;8103;51.340;12.326;2023-02-21T13:00:46;100279.75;;;14.36;69.47
15998;BME280;8103;51.340;12.326;2023-02-21T13:09:36;100280.84;;;14.10;70.60
15998;BME280;8103;51.340;12.326;2023-02-21T13:12:20;100274.38;;;14.06;71.16
15998;BME280;8103;51.340;12.326;2023-02-21T13:15:03;100274.66;;;14.10;71.19
15998;BME280;8103;51.340;12.326;2023-02-21T13:17:42;100269.53;;;14.13;70.98
15998;BME280;8103;51.340;12.326;2023-02-21T13:20:19;100279.78;;;14.16;70.90
15998;BME280;8103;51.340;12.326;2023-02-21T13:23:06;100272.19;;;14.18;70.82
15998;BME280;8103;51.340;12.326;2023-02-21T13:29:00;100273.81;;;14.29;70.76
15998;BME280;8103;51.340;12.326;2023-02-21T13:31:34;100264.13;;;14.23;70.85
15998;BME280;8103;51.340;12.326;2023-02-21T13:34:08;100270.03;;;14.20;71.15
15998;BME280;8103;51.340;12.326;2023-02-21T13:39:27;100267.88;;;14.32;70.75
15998;BME280;8103;51.340;12.326;2023-02-21T13:42:20;100260.34;;;14.14;71.23
15998;BME280;8103;51.340;12.326;2023-02-21T13:45:03;100252.81;;;14.01;71.75
15998;BME280;8103;51.340;12.326;2023-02-21T13:53:18;100264.16;;;13.83;72.44
15998;BME280;8103;51.340;12.326;2023-02-21T13:58:41;100253.09;;;14.00;72.23
15998;BME280;8103;51.340;12.326;2023-02-21T14:03:54;100261.97;;;14.05;71.61
15998;BME280;8103;51.340;12.326;2023-02-21T14:06:35;100266.03;;;13.98;71.74
15998;BME280;8103;51.340;12.326;2023-02-21T14:09:16;100256.63;;;13.95;71.99
15998;BME280;8103;51.340;12.326;2023-02-21T14:11:51;100256.06;;;13.98;72.04
15998;BME280;8103;51.340;12.326;2023-02-21T14:14:29;100259.31;;;14.00;71.90
15998;BME280;8103;51.340;12.326;2023-02-21T14:17:02;100261.72;;;13.92;71.96
15998;BME280;8103;51.340;12.326;2023-02-21T14:19:30;100254.44;;;13.87;71.67
15998;BME280;8103;51.340;12.326;2023-02-21T14:22:28;100263.59;;;13.96;71.54
15998;BME280;8103;51.340;12.326;2023-02-21T14:25:21;100253.88;;;14.10;71.23
15998;BME280;8103;51.340;12.326;2023-02-21T14:27:51;100247.41;;;14.26;70.99
15998;BME280;8103;51.340;12.326;2023-02-21T14:30:30;100256.47;;;14.55;70.12
15998;BME280;8103;51.340;12.326;2023-02-21T14:33:20;100256.34;;;14.75;69.15
15998;BME280;8103;51.340;12.326;2023-02-21T14:36:03;100248.44;;;14.94;68.07
15998;BME280;8103;51.340;12.326;2023-02-21T14:38:40;100252.41;;;15.07;67.29
15998;BME280;8103;51.340;12.326;2023-02-21T14:50:27;100250.47;;;14.63;66.54
15998;BME280;8103;51.340;12.326;2023-02-21T14:53:51;100258.63;;;14.53;66.63
15998;BME280;8103;51.340;12.326;2023-02-21T15:03:21;100264.50;;;14.70;65.36
15998;BME280;8103;51.340;12.326;2023-02-21T15:08:23;100263.56;;;14.90;64.17
15998;BME280;8103;51.340;12.326;2023-02-21T15:10:54;100251.59;;;15.06;63.94
15998;BME280;8103;51.340;12.326;2023-02-21T15:13:33;100255.66;;;15.09;63.14
15998;BME280;8103;51.340;12.326;2023-02-21T15:16:05;100260.50;;;15.07;62.79
15998;BME280;8103;51.340;12.326;2023-02-21T15:18:38;100257.81;;;15.02;62.85
15998;BME280;8103;51.340;12.326;2023-02-21T15:21:15;100260.28;;;14.98;63.10
15998;BME280;8103;51.340;12.326;2023-02-21T15:23:46;100272.25;;;14.82;63.08
15998;BME280;8103;51.340;12.326;2023-02-21T15:26:22;100268.25;;;14.69;63.29
15998;BME280;8103;51.340;12.326;2023-02-21T15:29:10;100269.91;;;14.70;63.20